Sioux Lookout Airport
CYXL : now visible

Airfield :











YOU CAN JOIN US ON...

 
LOGIN :

Register | Disclaimer

   EN    FR    IT 

 









Legend :    VFR   Marginal VFR   IFR   Intensive IFR   Very Intensive IFR
Visi :
Ceiling :
>= 8 km
>= 3000ft
5 to 8 km
1000 to 3000 ft
1500m to 5 km
500 to 1000 ft
800 to 1500m
200 to 500 ft
< 800m
< 200 ft
Symbols :   Thunderstorms  Fog  Heavy snow  Heavy precipitations  Wind > 20 kt






- Airport Elevation : 1258 ft
- IATA code : YXL


CYXL - Sioux Lookout

CURRENT METAR :
  • 261500Z 24004KT 220V290 15SM BKN015 BKN230 M05/M08 A3021 RMK SC6CI1 CI TR SLP259

EXPIRED METARs :
  • 261400Z 31004KT 230V320 15SM FEW010 FEW040 FEW080 M06/M08 A3021 RMK SF1SC1AC1 SF TR SLP258
  • 261300Z 27005KT 15SM FEW010 FEW040 BKN080 M07/M09 A3020 RMK SF1SC1AC3 SLP257

TAF TAF CYXL
Valid from the 26 at 14:00 until the 27 at 02:00 UTC


261341Z 2614/2702 26007KT P6SM FEW020 BKN040
TEMPO 2614/2701 P6SM -SHSN
BECMG 2616/2618 25012KT
FM270100 22010G20KT P6SM BKN030
TEMPO 2701/2702 P6SM -SHSN RMK NXT FCST BY 262000Z
CZWG FIR / North America



MET'MAP, your aeronautical weather chart ! - Copyright ORBIFLY December 2007 - Disclaimer

ORBIFLY MET'MAP TEAM :

Programming & Development : Alexandra Zaïnal
Concept & original design : Baudouin d'Aumeries
Assistance for programming : Marc-Olivier Méhu
Technical & hardware support : Manuel Goepfert

Contact : metmap@orbifly.com




SOURCES & CREDITS :

   NOAA       Earth
Advisory